Tejo Alges — CQIL6 — position and weather

sailwx.info

Track history (hours):
 
Tides and Currents Weather Stations Pressure Air Temp Water Temp Dewpoint Dewpoint Depression Visibility Wind Speed Wind Dir Waves Ship Positions

Tejo Alges

Last reported at 2017-Nov-19 15:28 UTC. Time now 2017-Nov-19 15:56 UTC.
Position N 53°21' W 002°54'.

Length 90 m; draft 6 m.

Type: Cargo ship. MMSI: 205806994.

Date/timePositionNaut miles runAvg speedWind from/ knotsBaromVisibWave heightAir tempDewpointWater temp
2017-Nov-19 15:28N 53°21' W 002°54'0 0.0
2017-Nov-19 14:55N 53°21' W 002°54'0 0.0
2017-Nov-19 14:25N 53°21' W 002°54'0 0.0
2017-Nov-19 13:55N 53°21' W 002°54'0 0.0
2017-Nov-19 13:28N 53°21' W 002°54'0 0.0
2017-Nov-19 12:55N 53°21' W 002°54'0 0.0
2017-Nov-19 12:25N 53°21' W 002°54'0 0.0
2017-Nov-19 11:49N 53°21' W 002°54'0 0.0
2017-Nov-19 11:13N 53°21' W 002°54'0 0.0
2017-Nov-19 10:52N 53°21' W 002°54'0 0.0
2017-Nov-19 10:28N 53°21' W 002°54'0 0.0
2017-Nov-19 09:58N 53°21' W 002°54'0 0.0
2017-Nov-19 09:28N 53°21' W 002°54'0 0.0
2017-Nov-19 08:52N 53°21' W 002°54'0 0.0
2017-Nov-19 08:25N 53°21' W 002°54'0 0.0
2017-Nov-19 07:58N 53°21' W 002°54'0 0.0
2017-Nov-19 07:28N 53°21' W 002°54'0 0.0
2017-Nov-19 06:43N 53°21' W 002°54'0 0.0
2017-Nov-19 06:28N 53°21' W 002°54'0 0.0
2017-Nov-19 05:55N 53°21' W 002°54'0 0.0
2017-Nov-19 05:25N 53°21' W 002°54'0 0.0
2017-Nov-19 04:58N 53°21' W 002°54'0 0.0
2017-Nov-19 04:25N 53°21' W 002°54'0 0.0
2017-Nov-19 03:58N 53°21' W 002°54'0 0.0
2017-Nov-19 03:28N 53°21' W 002°54'0 0.0
2017-Nov-19 02:52N 53°21' W 002°54'0 0.0
2017-Nov-19 02:28N 53°21' W 002°54'0 0.0
2017-Nov-19 01:55N 53°21' W 002°54'0 0.0
2017-Nov-19 01:28N 53°21' W 002°54'0 0.0
2017-Nov-19 00:55N 53°21' W 002°54'0 0.0
2017-Nov-19 00:25N 53°21' W 002°54'0 0.0
2017-Nov-18 23:55N 53°21' W 002°54'0 0.0
2017-Nov-18 23:19N 53°21' W 002°54'0 0.0
2017-Nov-18 22:58N 53°21' W 002°54'0 0.0
2017-Nov-18 22:28N 53°21' W 002°54'0 0.0
2017-Nov-18 21:49N 53°21' W 002°54'0 0.0
2017-Nov-18 21:28N 53°21' W 002°54'0 0.0
2017-Nov-18 20:55N 53°21' W 002°54'0 0.0
2017-Nov-18 20:25N 53°21' W 002°54'0 0.0
2017-Nov-18 19:55N 53°21' W 002°54'0 0.0
2017-Nov-18 19:22N 53°21' W 002°54'0 0.0
2017-Nov-18 18:58N 53°21' W 002°54'0 0.0
2017-Nov-18 18:16N 53°21' W 002°54'0 0.0
2017-Nov-18 17:55N 53°21' W 002°54'0 0.0
2017-Nov-18 17:28N 53°21' W 002°54'0 0.0
2017-Nov-18 16:55N 53°21' W 002°54'0 0.0
2017-Nov-18 15:34N 53°21' W 002°54'0 0.0
2017-Nov-18 15:28N 53°21' W 002°54'0 0.0
2017-Nov-18 14:58N 53°21' W 002°54'0 0.0
2017-Nov-18 14:28N 53°21' W 002°54'0 0.0
2017-Nov-18 13:58N 53°21' W 002°54'0 0.0
2017-Nov-18 12:49N 53°21' W 002°54'0 0.0
2017-Nov-18 12:07N 53°21' W 002°54'0 0.0
2017-Nov-18 11:58N 53°21' W 002°54'0 0.3
2017-Nov-18 11:30N 53°21' W 002°54'1 1.6
2017-Nov-18 11:00N 53°21' W 002°55'2 3.5
2017-Nov-18 10:30N 53°22' W 002°58'611.5
2017-Nov-18 10:00N 53°27' W 003°03'611.4
2017-Nov-18 09:30N 53°32' W 003°09'611.6
2017-Nov-18 09:00N 53°31' W 003°18'611.7
2017-Nov-18 08:30N 53°31' W 003°28'611.5
2017-Nov-18 08:00N 53°31' W 003°38'611.6
2017-Nov-18 07:30N 53°30' W 003°47'  
2017-Nov-11 07:01N 39°23' W 009°43'5 9.4
2017-Nov-11 06:31N 39°18' W 009°43'2 9.3
2017-Nov-11 06:21N 39°16' W 009°43'3 9.2
2017-Nov-11 06:01N 39°13' W 009°43'4 8.5
2017-Nov-11 05:30N 39°09' W 009°43'4 8.9
2017-Nov-11 05:01N 39°05' W 009°43'5 9.1
2017-Nov-11 04:30N 39°00' W 009°43'4 8.8
2017-Nov-11 04:00N 38°56' W 009°43'5 9.2
2017-Nov-11 03:31N 38°51' W 009°42'4 8.9
2017-Nov-11 03:01N 38°47' W 009°42'5 9.0
2017-Nov-11 02:31N 38°42' W 009°41'4 8.9
2017-Nov-11 02:01N 38°38' W 009°41'4 8.7
2017-Nov-11 01:31N 38°33' W 009°40'5 9.3
2017-Nov-11 01:01N 38°29' W 009°39'5 9.4
2017-Nov-11 00:30N 38°24' W 009°38'5 9.4
2017-Nov-11 00:00N 38°20' W 009°37'5 9.4
2017-Nov-10 23:30N 38°15' W 009°36'5 9.3
2017-Nov-10 23:01N 38°10' W 009°35'5 9.6
2017-Nov-10 22:31N 38°06' W 009°34'510.1
2017-Nov-10 22:00N 38°01' W 009°33'5 9.9
2017-Nov-10 21:31N 37°56' W 009°32'510.0
2017-Nov-10 21:01N 37°51' W 009°31'510.2
2017-Nov-10 20:30N 37°46' W 009°30'510.5
2017-Nov-10 20:01N 37°41' W 009°29'510.4
2017-Nov-10 19:31N 37°36' W 009°27'510.4
2017-Nov-10 19:01N 37°30' W 009°26'5 9.9
2017-Nov-10 18:29N 37°25' W 009°25'  
Track history (hours):
 
Tides and Currents Weather Stations Pressure Air Temp Water Temp Dewpoint Dewpoint Depression Visibility Wind Speed Wind Dir Waves Ship Positions

Tejo Alges

Last reported at 2017-Nov-19 15:28 UTC. Time now 2017-Nov-19 15:56 UTC.
Position N 53°21' W 002°54'.

Length 90 m; draft 6 m.

Type: Cargo ship. MMSI: 205806994.

Date/timePositionNaut miles runAvg speedWind from/ knotsBaromVisibWave heightAir tempDewpointWater temp
2017-Nov-19 15:28N 53°21' W 002°54'0 0.0
2017-Nov-19 14:55N 53°21' W 002°54'0 0.0
2017-Nov-19 14:25N 53°21' W 002°54'0 0.0
2017-Nov-19 13:55N 53°21' W 002°54'0 0.0
2017-Nov-19 13:28N 53°21' W 002°54'0 0.0
2017-Nov-19 12:55N 53°21' W 002°54'0 0.0
2017-Nov-19 12:25N 53°21' W 002°54'0 0.0
2017-Nov-19 11:49N 53°21' W 002°54'0 0.0
2017-Nov-19 11:13N 53°21' W 002°54'0 0.0
2017-Nov-19 10:52N 53°21' W 002°54'0 0.0
2017-Nov-19 10:28N 53°21' W 002°54'0 0.0
2017-Nov-19 09:58N 53°21' W 002°54'0 0.0
2017-Nov-19 09:28N 53°21' W 002°54'0 0.0
2017-Nov-19 08:52N 53°21' W 002°54'0 0.0
2017-Nov-19 08:25N 53°21' W 002°54'0 0.0
2017-Nov-19 07:58N 53°21' W 002°54'0 0.0
2017-Nov-19 07:28N 53°21' W 002°54'0 0.0
2017-Nov-19 06:43N 53°21' W 002°54'0 0.0
2017-Nov-19 06:28N 53°21' W 002°54'0 0.0
2017-Nov-19 05:55N 53°21' W 002°54'0 0.0
2017-Nov-19 05:25N 53°21' W 002°54'0 0.0
2017-Nov-19 04:58N 53°21' W 002°54'0 0.0
2017-Nov-19 04:25N 53°21' W 002°54'0 0.0
2017-Nov-19 03:58N 53°21' W 002°54'0 0.0
2017-Nov-19 03:28N 53°21' W 002°54'0 0.0
2017-Nov-19 02:52N 53°21' W 002°54'0 0.0
2017-Nov-19 02:28N 53°21' W 002°54'0 0.0
2017-Nov-19 01:55N 53°21' W 002°54'0 0.0
2017-Nov-19 01:28N 53°21' W 002°54'0 0.0
2017-Nov-19 00:55N 53°21' W 002°54'0 0.0
2017-Nov-19 00:25N 53°21' W 002°54'0 0.0
2017-Nov-18 23:55N 53°21' W 002°54'0 0.0
2017-Nov-18 23:19N 53°21' W 002°54'0 0.0
2017-Nov-18 22:58N 53°21' W 002°54'0 0.0
2017-Nov-18 22:28N 53°21' W 002°54'0 0.0
2017-Nov-18 21:49N 53°21' W 002°54'0 0.0
2017-Nov-18 21:28N 53°21' W 002°54'0 0.0
2017-Nov-18 20:55N 53°21' W 002°54'0 0.0
2017-Nov-18 20:25N 53°21' W 002°54'0 0.0
2017-Nov-18 19:55N 53°21' W 002°54'0 0.0
2017-Nov-18 19:22N 53°21' W 002°54'0 0.0
2017-Nov-18 18:58N 53°21' W 002°54'0 0.0
2017-Nov-18 18:16N 53°21' W 002°54'0 0.0
2017-Nov-18 17:55N 53°21' W 002°54'0 0.0
2017-Nov-18 17:28N 53°21' W 002°54'0 0.0
2017-Nov-18 16:55N 53°21' W 002°54'0 0.0
2017-Nov-18 15:34N 53°21' W 002°54'0 0.0
2017-Nov-18 15:28N 53°21' W 002°54'0 0.0
2017-Nov-18 14:58N 53°21' W 002°54'0 0.0
2017-Nov-18 14:28N 53°21' W 002°54'0 0.0
2017-Nov-18 13:58N 53°21' W 002°54'0 0.0
2017-Nov-18 12:49N 53°21' W 002°54'0 0.0
2017-Nov-18 12:07N 53°21' W 002°54'0 0.0
2017-Nov-18 11:58N 53°21' W 002°54'0 0.3
2017-Nov-18 11:30N 53°21' W 002°54'1 1.6
2017-Nov-18 11:00N 53°21' W 002°55'2 3.5
2017-Nov-18 10:30N 53°22' W 002°58'611.5
2017-Nov-18 10:00N 53°27' W 003°03'611.4
2017-Nov-18 09:30N 53°32' W 003°09'611.6
2017-Nov-18 09:00N 53°31' W 003°18'611.7
2017-Nov-18 08:30N 53°31' W 003°28'611.5
2017-Nov-18 08:00N 53°31' W 003°38'611.6
2017-Nov-18 07:30N 53°30' W 003°47'  
2017-Nov-11 07:01N 39°23' W 009°43'5 9.4
2017-Nov-11 06:31N 39°18' W 009°43'2 9.3
2017-Nov-11 06:21N 39°16' W 009°43'3 9.2
2017-Nov-11 06:01N 39°13' W 009°43'4 8.5
2017-Nov-11 05:30N 39°09' W 009°43'4 8.9
2017-Nov-11 05:01N 39°05' W 009°43'5 9.1
2017-Nov-11 04:30N 39°00' W 009°43'4 8.8
2017-Nov-11 04:00N 38°56' W 009°43'5 9.2
2017-Nov-11 03:31N 38°51' W 009°42'4 8.9
2017-Nov-11 03:01N 38°47' W 009°42'5 9.0
2017-Nov-11 02:31N 38°42' W 009°41'4 8.9
2017-Nov-11 02:01N 38°38' W 009°41'4 8.7
2017-Nov-11 01:31N 38°33' W 009°40'5 9.3
2017-Nov-11 01:01N 38°29' W 009°39'5 9.4
2017-Nov-11 00:30N 38°24' W 009°38'5 9.4
2017-Nov-11 00:00N 38°20' W 009°37'5 9.4
2017-Nov-10 23:30N 38°15' W 009°36'5 9.3
2017-Nov-10 23:01N 38°10' W 009°35'5 9.6
2017-Nov-10 22:31N 38°06' W 009°34'510.1
2017-Nov-10 22:00N 38°01' W 009°33'5 9.9
2017-Nov-10 21:31N 37°56' W 009°32'510.0
2017-Nov-10 21:01N 37°51' W 009°31'510.2
2017-Nov-10 20:30N 37°46' W 009°30'510.5
2017-Nov-10 20:01N 37°41' W 009°29'510.4
2017-Nov-10 19:31N 37°36' W 009°27'510.4
2017-Nov-10 19:01N 37°30' W 009°26'5 9.9
2017-Nov-10 18:29N 37°25' W 009°25'  

Dump ship's entire track history